Home > Products > Valid Products > TAF

000
FTUS41 KRNK 172320
TAFLYH
TAF
KLYH 172320Z 1800/1824 00000KT P6SM FEW060
     FM180400 00000KT 6SM BR SCT025
     FM180900 00000KT 3SM BR SCT001 BKN025
      TEMPO 1810/1812 1/2SM FG BKN001
     FM181400 00000KT P6SM SCT025 BKN040
     FM181900 15003KT P6SM SCT045 BKN150=



000
FTUS41 KRNK 172320
TAFBLF
TAF
KBLF 172320Z 1800/1824 15005KT P6SM SCT035 BKN060
     FM180400 00000KT 6SM BR BKN035
     FM180700 00000KT 2SM BR SCT002 BKN025
      TEMPO 1810/1812 1/2SM FG BKN002
     FM181400 00000KT 5SM BR SCT012 BKN025
     FM181600 VRB03KT P6SM BKN040=



000
FTUS41 KRNK 172320
TAFLWB
TAF
KLWB 172320Z 1800/1824 19003KT P6SM SCT060
     FM180400 00000KT 4SM BR FEW004
     FM180700 00000KT 2SM BR SCT004 BKN020
      TEMPO 1810/1812 1/4SM FG OVC001
     FM181400 00000KT P6SM SCT012 BKN030
     FM181630 VRB03KT P6SM BKN045=



000
FTUS41 KRNK 172320
TAFDAN
TAF
KDAN 172320Z 1800/1824 06004KT P6SM SCT060
     FM180700 00000KT 4SM BR SCT020
     FM180900 00000KT 2SM BR SCT004 BKN020
      TEMPO 1810/1812 3/4SM BR BKN004
     FM181400 00000KT P6SM SCT025 BKN070
     FM181900 07004KT P6SM SCT050 BKN150=



000
FTUS41 KRNK 172320
TAFROA
TAF
KROA 172320Z 1800/1824 12004KT P6SM FEW060
     FM180400 00000KT P6SM SCT025
     FM180900 00000KT 4SM BR BKN025
     FM181400 12004KT P6SM SCT025 BKN040=



000
FTUS41 KRNK 172320
TAFLWB
TAF
KLWB 172320Z 1800/1824 19003KT P6SM SCT060
     FM180400 00000KT 4SM BR FEW004
     FM180700 00000KT 2SM BR SCT004 BKN020
      TEMPO 1810/1812 1/4SM FG OVC001
     FM181400 00000KT P6SM SCT012 BKN030
     FM181630 VRB03KT P6SM BKN045=



000
FTUS41 KRNK 172320
TAFBLF
TAF
KBLF 172320Z 1800/1824 15005KT P6SM SCT035 BKN060
     FM180400 00000KT 6SM BR BKN035
     FM180700 00000KT 2SM BR SCT002 BKN025
      TEMPO 1810/1812 1/2SM FG BKN002
     FM181400 00000KT 5SM BR SCT012 BKN025
     FM181600 VRB03KT P6SM BKN040=



000
FTUS41 KRNK 172320
TAFDAN
TAF
KDAN 172320Z 1800/1824 06004KT P6SM SCT060
     FM180700 00000KT 4SM BR SCT020
     FM180900 00000KT 2SM BR SCT004 BKN020
      TEMPO 1810/1812 3/4SM BR BKN004
     FM181400 00000KT P6SM SCT025 BKN070
     FM181900 07004KT P6SM SCT050 BKN150=



000
FTUS41 KRNK 172320
TAFLYH
TAF
KLYH 172320Z 1800/1824 00000KT P6SM FEW060
     FM180400 00000KT 6SM BR SCT025
     FM180900 00000KT 3SM BR SCT001 BKN025
      TEMPO 1810/1812 1/2SM FG BKN001
     FM181400 00000KT P6SM SCT025 BKN040
     FM181900 15003KT P6SM SCT045 BKN150=



000
FTUS41 KRNK 172320
TAFROA
TAF
KROA 172320Z 1800/1824 12004KT P6SM FEW060
     FM180400 00000KT P6SM SCT025
     FM180900 00000KT 4SM BR BKN025
     FM181400 12004KT P6SM SCT025 BKN040=



000
FTUS41 KRNK 171732
TAFLYH
TAF
KLYH 171732Z 1718/1818 08005KT P6SM SCT040 BKN080
     FM172200 00000KT P6SM SCT040
     FM180700 00000KT 3SM BR SCT030 BKN070
     FM180900 00000KT 1SM BR SCT001 BKN025
      TEMPO 1810/1812 1/2SM FG BKN001
     FM181300 00000KT 4SM BR SCT004 BKN040
     FM181500 00000KT P6SM BKN040=



000
FTUS41 KRNK 171732
TAFROA
TAF
KROA 171732Z 1718/1818 12004KT P6SM BKN045
     FM180000 00000KT P6SM SCT020
     FM180900 00000KT 4SM BR BKN025
     FM181400 00000KT P6SM SCT025 BKN035=



000
FTUS41 KRNK 171732
TAFDAN
TAF
KDAN 171732Z 1718/1818 05006KT P6SM SCT028 BKN050
      TEMPO 1718/1719 BKN028
     FM180100 06004KT P6SM SCT025 BKN080
     FM180700 00000KT 4SM BR SCT005 BKN030
     FM180900 00000KT 2SM BR SCT004 BKN020
      TEMPO 1810/1812 3/4SM BR BKN004
     FM181400 00000KT P6SM SCT015 BKN070=



000
FTUS41 KRNK 171732
TAFBLF
TAF
KBLF 171732Z 1718/1818 15005KT P6SM SCT025 BKN035
     FM180400 00000KT 4SM BR BKN020
     FM180700 00000KT 2SM BR SCT002 BKN015
      TEMPO 1810/1812 1/2SM FG BKN002
     FM181400 00000KT 5SM BR SCT012 BKN025
     FM181600 00000KT P6SM BKN040=



000
FTUS41 KRNK 171732
TAFLWB
TAF
KLWB 171732Z 1718/1818 19003KT P6SM SCT028 BKN040
      TEMPO 1718/1719 BKN028
     FM180400 00000KT 4SM BR BKN030
     FM180700 00000KT 2SM BR SCT004 BKN020
      TEMPO 1810/1812 1/4SM FG OVC001
     FM181500 00000KT P6SM SCT012 BKN030
     FM181630 00000KT P6SM BKN045=



000
FTUS41 KRNK 171732
TAFLWB
TAF
KLWB 171732Z 1718/1818 19003KT P6SM SCT028 BKN040
      TEMPO 1718/1719 BKN028
     FM180400 00000KT 4SM BR BKN030
     FM180700 00000KT 2SM BR SCT004 BKN020
      TEMPO 1810/1812 1/4SM FG OVC001
     FM181500 00000KT P6SM SCT012 BKN030
     FM181630 00000KT P6SM BKN045=



000
FTUS41 KRNK 171732
TAFDAN
TAF
KDAN 171732Z 1718/1818 05006KT P6SM SCT028 BKN050
      TEMPO 1718/1719 BKN028
     FM180100 06004KT P6SM SCT025 BKN080
     FM180700 00000KT 4SM BR SCT005 BKN030
     FM180900 00000KT 2SM BR SCT004 BKN020
      TEMPO 1810/1812 3/4SM BR BKN004
     FM181400 00000KT P6SM SCT015 BKN070=



000
FTUS41 KRNK 171732
TAFLYH
TAF
KLYH 171732Z 1718/1818 08005KT P6SM SCT040 BKN080
     FM172200 00000KT P6SM SCT040
     FM180700 00000KT 3SM BR SCT030 BKN070
     FM180900 00000KT 1SM BR SCT001 BKN025
      TEMPO 1810/1812 1/2SM FG BKN001
     FM181300 00000KT 4SM BR SCT004 BKN040
     FM181500 00000KT P6SM BKN040=



000
FTUS41 KRNK 171732
TAFBLF
TAF
KBLF 171732Z 1718/1818 15005KT P6SM SCT025 BKN035
     FM180400 00000KT 4SM BR BKN020
     FM180700 00000KT 2SM BR SCT002 BKN015
      TEMPO 1810/1812 1/2SM FG BKN002
     FM181400 00000KT 5SM BR SCT012 BKN025
     FM181600 00000KT P6SM BKN040=



000
FTUS41 KRNK 171732
TAFROA
TAF
KROA 171732Z 1718/1818 12004KT P6SM BKN045
     FM180000 00000KT P6SM SCT020
     FM180900 00000KT 4SM BR BKN025
     FM181400 00000KT P6SM SCT025 BKN035=



000
FTUS41 KRNK 171519 AAA
TAFDAN
TAF AMD
KDAN 171519Z 1715/1812 03010KT P6SM FEW045 OVC080
     FM172000 06004KT P6SM SCT020 BKN040
     FM180100 02005KT P6SM SCT015
     FM180700 00000KT 5SM BR SCT007 BKN035
     FM181000 00000KT 3SM BR BKN005=



000
FTUS41 KRNK 171411 AAA
TAFBLF
TAF AMD
KBLF 171411Z 1714/1812 16006KT P6SM SCT020 BKN045
      TEMPO 1715/1717 BKN020
     FM180000 14004KT P6SM SCT025
     FM180700 23003KT 2SM BR SCT002
     FM181000 VRB03KT 1/2SM FG BKN002=



000
FTUS41 KRNK 171411 AAA
TAFBLF
TAF AMD
KBLF 171411Z 1714/1812 16006KT P6SM SCT020 BKN045
      TEMPO 1715/1717 BKN020
     FM180000 14004KT P6SM SCT025
     FM180700 23003KT 2SM BR SCT002
     FM181000 VRB03KT 1/2SM FG BKN002=



000
FTUS41 KRNK 171256 AAA
TAFLWB
TAF AMD
KLWB 171256Z 1713/1812 03004KT P6SM SCT005 BKN035
      TEMPO 1713/1715 BKN025
     FM171800 23003KT P6SM BKN040
     FM180000 00000KT P6SM SCT035
     FM180700 00000KT 2SM BR SCT005
     FM181000 00000KT 1/4SM FG OVC001=



000
FTUS41 KRNK 171256 AAA
TAFLWB
TAF AMD
KLWB 171256Z 1713/1812 03004KT P6SM SCT005 BKN035
      TEMPO 1713/1715 BKN025
     FM171800 23003KT P6SM BKN040
     FM180000 00000KT P6SM SCT035
     FM180700 00000KT 2SM BR SCT005
     FM181000 00000KT 1/4SM FG OVC001=



000
FTUS41 KRNK 171125
TAFLWB
TAF
KLWB 171125Z 1712/1812 02004KT 4SM BR OVC001
      TEMPO 1712/1714 1SM BR SCT001
     FM171400 14003KT P6SM SCT007 OVC025
     FM171800 23003KT P6SM BKN040
     FM180000 00000KT P6SM SCT035
     FM180700 00000KT 2SM BR SCT005
     FM181000 00000KT 1/4SM FG OVC001=



000
FTUS41 KRNK 171125
TAFDAN
TAF
KDAN 171125Z 1712/1812 04009KT P6SM BKN030 OVC045
     FM171400 05004KT P6SM SCT010 OVC020
     FM172000 06004KT P6SM SCT020 BKN040
     FM180100 02005KT P6SM SCT015
     FM180700 00000KT 5SM BR SCT007 BKN035
     FM181000 00000KT 3SM BR BKN005=



000
FTUS41 KRNK 171125
TAFLWB
TAF
KLWB 171125Z 1712/1812 02004KT 4SM BR OVC001
      TEMPO 1712/1714 1SM BR SCT001
     FM171400 14003KT P6SM SCT007 OVC025
     FM171800 23003KT P6SM BKN040
     FM180000 00000KT P6SM SCT035
     FM180700 00000KT 2SM BR SCT005
     FM181000 00000KT 1/4SM FG OVC001=



000
FTUS41 KRNK 171125
TAFDAN
TAF
KDAN 171125Z 1712/1812 04009KT P6SM BKN030 OVC045
     FM171400 05004KT P6SM SCT010 OVC020
     FM172000 06004KT P6SM SCT020 BKN040
     FM180100 02005KT P6SM SCT015
     FM180700 00000KT 5SM BR SCT007 BKN035
     FM181000 00000KT 3SM BR BKN005=



000
FTUS41 KRNK 171125
TAFLYH
TAF
KLYH 171125Z 1712/1812 36004KT P6SM SCT040 BKN060
     FM171800 13004KT P6SM BKN035
     FM180000 00000KT P6SM SCT015 SCT040
     FM180700 00000KT 4SM BR SCT035
     FM180900 00000KT 1SM BR SCT001 BKN015=



000
FTUS41 KRNK 171125
TAFBLF
TAF
KBLF 171125Z 1712/1812 06003KT 1/4SM FG VV001
      TEMPO 1712/1714 3SM BR SCT004
     FM171430 15003KT P6SM SCT007 BKN020
     FM171900 VRB03KT P6SM BKN040
     FM180000 14004KT P6SM SCT025
     FM180700 23003KT 2SM BR SCT002
     FM181000 VRB03KT 1/2SM FG BKN002=



000
FTUS41 KRNK 171125
TAFBLF
TAF
KBLF 171125Z 1712/1812 06003KT 1/4SM FG VV001
      TEMPO 1712/1714 3SM BR SCT004
     FM171430 15003KT P6SM SCT007 BKN020
     FM171900 VRB03KT P6SM BKN040
     FM180000 14004KT P6SM SCT025
     FM180700 23003KT 2SM BR SCT002
     FM181000 VRB03KT 1/2SM FG BKN002=



000
FTUS41 KRNK 171125
TAFROA
TAF
KROA 171125Z 1712/1812 02004KT P6SM SCT050
     FM171400 09005KT P6SM SCT015 BKN050
     FM171600 10005KT P6SM SCT025 BKN035
     FM171900 12003KT P6SM SCT035 BKN050
     FM180000 10004KT P6SM SCT025 SCT100=



000
FTUS41 KRNK 171125
TAFLYH
TAF
KLYH 171125Z 1712/1812 36004KT P6SM SCT040 BKN060
     FM171800 13004KT P6SM BKN035
     FM180000 00000KT P6SM SCT015 SCT040
     FM180700 00000KT 4SM BR SCT035
     FM180900 00000KT 1SM BR SCT001 BKN015=



000
FTUS41 KRNK 171125
TAFROA
TAF
KROA 171125Z 1712/1812 02004KT P6SM SCT050
     FM171400 09005KT P6SM SCT015 BKN050
     FM171600 10005KT P6SM SCT025 BKN035
     FM171900 12003KT P6SM SCT035 BKN050
     FM180000 10004KT P6SM SCT025 SCT100=



000
FTUS41 KRNK 170901 AAA
TAFROA
TAF AMD
KROA 170901Z 1709/1806 12003KT P6SM OVC040
      TEMPO 1709/1712 4SM BR SCT006 OVC025
     FM171300 09005KT 6SM BR OVC007
     FM171600 10005KT P6SM SCT010 BKN020
     FM171900 12003KT P6SM SCT015 BKN035
     FM180000 10004KT P6SM SCT025=



000
FTUS41 KRNK 170901 AAA
TAFROA
TAF AMD
KROA 170901Z 1709/1806 12003KT P6SM OVC040
      TEMPO 1709/1712 4SM BR SCT006 OVC025
     FM171300 09005KT 6SM BR OVC007
     FM171600 10005KT P6SM SCT010 BKN020
     FM171900 12003KT P6SM SCT015 BKN035
     FM180000 10004KT P6SM SCT025=



000
FTUS41 KRNK 170817 AAA
TAFBLF
TAF AMD
KBLF 170817Z 1708/1806 11003KT 1/2SM FG VV001
      TEMPO 1710/1713 3SM BR SCT004
     FM171400 15003KT P6SM SCT007 BKN020
     FM171900 VRB03KT P6SM BKN040
     FM180000 14004KT P6SM SCT025=



000
FTUS41 KRNK 170817 AAA
TAFBLF
TAF AMD
KBLF 170817Z 1708/1806 11003KT 1/2SM FG VV001
      TEMPO 1710/1713 3SM BR SCT004
     FM171400 15003KT P6SM SCT007 BKN020
     FM171900 VRB03KT P6SM BKN040
     FM180000 14004KT P6SM SCT025=



000
FTUS41 KRNK 170807 AAA
TAFLYH
TAF AMD
KLYH 170807Z 1708/1806 02006KT P6SM SCT030 BKN060
      TEMPO 1709/1712 3SM BR BKN025
     FM171200 03004KT P6SM OVC015
     FM171800 13004KT P6SM BKN035
     FM180000 00000KT P6SM BKN025=



000
FTUS41 KRNK 170719 AAA
TAFLWB
TAF AMD
KLWB 170719Z 1707/1806 00000KT 1/4SM FG OVC001
      TEMPO 1707/1710 3SM BR SCT005 BKN035
     FM171400 14003KT P6SM SCT007 OVC025
     FM171800 23003KT P6SM BKN040
     FM180000 00000KT P6SM SCT035=



000
FTUS41 KRNK 170719 AAA
TAFLWB
TAF AMD
KLWB 170719Z 1707/1806 00000KT 1/4SM FG OVC001
      TEMPO 1707/1710 3SM BR SCT005 BKN035
     FM171400 14003KT P6SM SCT007 OVC025
     FM171800 23003KT P6SM BKN040
     FM180000 00000KT P6SM SCT035=



000
FTUS41 KRNK 170525
TAFROA
TAF
KROA 170525Z 1706/1806 05003KT P6SM BKN040 OVC060
     FM170900 08003KT P6SM BKN015 OVC030
      TEMPO 1709/1712 4SM -DZ BR SCT006 OVC012
     FM171200 09005KT 5SM -DZ BR OVC007
     FM171600 10005KT P6SM SCT010 BKN020
     FM171900 12003KT P6SM SCT015 BKN035
     FM180000 10004KT P6SM SCT025=



000
FTUS41 KRNK 170525
TAFDAN
TAF
KDAN 170525Z 1706/1806 06005KT P6SM SCT060 OVC080
     FM170900 03006KT P6SM SCT007 OVC015
     FM171500 05004KT P6SM SCT010 OVC025
     FM172000 06004KT P6SM SCT020 BKN035
     FM180100 02005KT P6SM BKN020=



000
FTUS41 KRNK 170525
TAFLYH
TAF
KLYH 170525Z 1706/1806 02006KT P6SM SCT040 OVC060
     FM170800 03004KT 5SM BR OVC030
     FM171200 03004KT P6SM OVC015
     FM171800 13004KT P6SM BKN035
     FM180000 00000KT P6SM BKN025=



000
FTUS41 KRNK 170525
TAFBLF
TAF
KBLF 170525Z 1706/1806 02005KT P6SM SCT015 OVC035
     FM170900 VRB03KT 5SM BR SCT005 BKN015
      TEMPO 1710/1713 1SM BR OVC004
     FM171600 15003KT P6SM SCT007 BKN020
     FM171900 VRB03KT P6SM BKN040
     FM180000 14004KT P6SM SCT025=



000
FTUS41 KRNK 170525
TAFLWB
TAF
KLWB 170525Z 1706/1806 00000KT 5SM BR SCT035 OVC060
      TEMPO 1706/1710 2SM BR SCT005 BKN035
     FM171600 14003KT P6SM SCT007 OVC025
     FM171800 23003KT P6SM BKN040
     FM180000 00000KT P6SM SCT035=



000
FTUS41 KRNK 170525
TAFROA
TAF
KROA 170525Z 1706/1806 05003KT P6SM BKN040 OVC060
     FM170900 08003KT P6SM BKN015 OVC030
      TEMPO 1709/1712 4SM -DZ BR SCT006 OVC012
     FM171200 09005KT 5SM -DZ BR OVC007
     FM171600 10005KT P6SM SCT010 BKN020
     FM171900 12003KT P6SM SCT015 BKN035
     FM180000 10004KT P6SM SCT025=



000
FTUS41 KRNK 170525
TAFBLF
TAF
KBLF 170525Z 1706/1806 02005KT P6SM SCT015 OVC035
     FM170900 VRB03KT 5SM BR SCT005 BKN015
      TEMPO 1710/1713 1SM BR OVC004
     FM171600 15003KT P6SM SCT007 BKN020
     FM171900 VRB03KT P6SM BKN040
     FM180000 14004KT P6SM SCT025=



000
FTUS41 KRNK 170525
TAFDAN
TAF
KDAN 170525Z 1706/1806 06005KT P6SM SCT060 OVC080
     FM170900 03006KT P6SM SCT007 OVC015
     FM171500 05004KT P6SM SCT010 OVC025
     FM172000 06004KT P6SM SCT020 BKN035
     FM180100 02005KT P6SM BKN020=



000
FTUS41 KRNK 170525
TAFLYH
TAF
KLYH 170525Z 1706/1806 02006KT P6SM SCT040 OVC060
     FM170800 03004KT 5SM BR OVC030
     FM171200 03004KT P6SM OVC015
     FM171800 13004KT P6SM BKN035
     FM180000 00000KT P6SM BKN025=



000
FTUS41 KRNK 170525
TAFLWB
TAF
KLWB 170525Z 1706/1806 00000KT 5SM BR SCT035 OVC060
      TEMPO 1706/1710 2SM BR SCT005 BKN035
     FM171600 14003KT P6SM SCT007 OVC025
     FM171800 23003KT P6SM BKN040
     FM180000 00000KT P6SM SCT035=



000
FTUS41 KRNK 170344 AAA
TAFBLF
TAF AMD
KBLF 170344Z 1704/1724 VRB03KT P6SM OVC010
     FM170600 VRB03KT P6SM OVC007
      TEMPO 1710/1713 1SM BR OVC004
     FM171600 15003KT P6SM SCT007 BKN020
     FM171800 21003KT P6SM SCT040=



000
FTUS41 KRNK 162339
TAFLYH
TAF
KLYH 162339Z 1700/1724 00000KT P6SM SKC
     FM170300 00000KT P6SM SCT050 BKN100
     FM170800 03004KT 5SM BR OVC030
     FM171300 03004KT P6SM OVC025
     FM171800 13004KT P6SM BKN045=



000
FTUS41 KRNK 162339
TAFROA
TAF
KROA 162339Z 1700/1724 33005KT P6SM FEW060
     FM170600 01003KT P6SM SCT012 OVC030
      TEMPO 1710/1712 4SM -DZ BR SCT006 OVC012
     FM171900 12003KT P6SM SCT015 BKN035=



000
FTUS41 KRNK 162339
TAFBLF
TAF
KBLF 162339Z 1700/1724 00000KT P6SM BKN015
      TEMPO 1700/1701 SCT015
     FM170300 00000KT 4SM BR OVC004
      TEMPO 1710/1712 1SM -DZ BR OVC004
     FM171600 15003KT P6SM SCT007 BKN020
     FM171800 21003KT P6SM SCT040=



000
FTUS41 KRNK 162339
TAFDAN
TAF
KDAN 162339Z 1700/1724 00000KT P6SM BKN060
     FM170600 03003KT 6SM -DZ BR BKN008
     FM171500 05004KT P6SM SCT010 OVC030
     FM172000 06004KT P6SM BKN050=



000
FTUS41 KRNK 162339
TAFLWB
TAF
KLWB 162339Z 1700/1724 34003KT P6SM SCT020
     FM170400 00000KT 4SM BR SCT003 BKN015
      TEMPO 1707/1709 1SM -DZ BR OVC003
     FM171600 14003KT P6SM SCT007 OVC025
     FM171800 23003KT P6SM SCT040=



000
FTUS41 KRNK 162339
TAFDAN
TAF
KDAN 162339Z 1700/1724 00000KT P6SM BKN060
     FM170600 03003KT 6SM -DZ BR BKN008
     FM171500 05004KT P6SM SCT010 OVC030
     FM172000 06004KT P6SM BKN050=



000
FTUS41 KRNK 162339
TAFBLF
TAF
KBLF 162339Z 1700/1724 00000KT P6SM BKN015
      TEMPO 1700/1701 SCT015
     FM170300 00000KT 4SM BR OVC004
      TEMPO 1710/1712 1SM -DZ BR OVC004
     FM171600 15003KT P6SM SCT007 BKN020
     FM171800 21003KT P6SM SCT040=



000
FTUS41 KRNK 162339
TAFROA
TAF
KROA 162339Z 1700/1724 33005KT P6SM FEW060
     FM170600 01003KT P6SM SCT012 OVC030
      TEMPO 1710/1712 4SM -DZ BR SCT006 OVC012
     FM171900 12003KT P6SM SCT015 BKN035=



000
FTUS41 KRNK 162339
TAFLYH
TAF
KLYH 162339Z 1700/1724 00000KT P6SM SKC
     FM170300 00000KT P6SM SCT050 BKN100
     FM170800 03004KT 5SM BR OVC030
     FM171300 03004KT P6SM OVC025
     FM171800 13004KT P6SM BKN045=



000
FTUS41 KRNK 162339
TAFLWB
TAF
KLWB 162339Z 1700/1724 34003KT P6SM SCT020
     FM170400 00000KT 4SM BR SCT003 BKN015
      TEMPO 1707/1709 1SM -DZ BR OVC003
     FM171600 14003KT P6SM SCT007 OVC025
     FM171800 23003KT P6SM SCT040=



000
FTUS41 KRNK 162001 AAA
TAFBLF
TAF AMD
KBLF 162001Z 1620/1718 26005KT P6SM FEW010 SCT026 BKN050
     FM170300 32002KT 4SM BR BKN005
     FM171000 09002KT 2SM -DZ BR OVC004
     FM171600 14003KT P6SM SCT008 BKN012=



000
FTUS41 KRNK 162001 AAA
TAFBLF
TAF AMD
KBLF 162001Z 1620/1718 26005KT P6SM FEW010 SCT026 BKN050
     FM170300 32002KT 4SM BR BKN005
     FM171000 09002KT 2SM -DZ BR OVC004
     FM171600 14003KT P6SM SCT008 BKN012=



000
FTUS41 KRNK 161746
TAFLYH
TAF
KLYH 161746Z 1618/1718 00000KT P6SM BKN045
     FM170100 00000KT P6SM SCT050 BKN100
     FM170800 03004KT 4SM BR BKN020
     FM171300 03004KT 6SM BR OVC025=



000
FTUS41 KRNK 161746
TAFROA
TAF
KROA 161746Z 1618/1718 01006KT P6SM BKN035 OVC045
     FM170600 04003KT P6SM BKN012
     FM171000 06002KT 4SM -DZ BR OVC006
     FM171400 07003KT P6SM SCT008 BKN012=



000
FTUS41 KRNK 161746
TAFLWB
TAF
KLWB 161746Z 1618/1718 27003KT P6SM SCT020 BKN030 OVC050
     FM162100 31006KT P6SM SCT028 BKN035
     FM170000 00000KT P6SM SCT035 SCT100
     FM170500 00000KT 4SM BR SCT001 BKN015
     FM171000 00000KT 3SM -DZ BR OVC005
     FM171700 07001KT 5SM -DZ BR SCT005 BKN008=



000
FTUS41 KRNK 161746
TAFBLF
TAF
KBLF 161746Z 1618/1718 30005KT 5SM BR OVC004
     FM162100 30007KT 4SM BR SCT004 OVC008
     FM170200 32002KT 4SM BR BKN005
     FM171000 09002KT 2SM -DZ BR OVC004
     FM171600 14003KT P6SM SCT008 BKN012=



000
FTUS41 KRNK 161746
TAFDAN
TAF
KDAN 161746Z 1618/1718 00000KT P6SM SCT045
     FM170100 35003KT P6SM BKN100
     FM170900 03002KT 4SM -DZ BR OVC008
     FM171600 04003KT P6SM SCT008 BKN015=



000
FTUS41 KRNK 161746
TAFDAN
TAF
KDAN 161746Z 1618/1718 00000KT P6SM SCT045
     FM170100 35003KT P6SM BKN100
     FM170900 03002KT 4SM -DZ BR OVC008
     FM171600 04003KT P6SM SCT008 BKN015=



000
FTUS41 KRNK 161746
TAFLYH
TAF
KLYH 161746Z 1618/1718 00000KT P6SM BKN045
     FM170100 00000KT P6SM SCT050 BKN100
     FM170800 03004KT 4SM BR BKN020
     FM171300 03004KT 6SM BR OVC025=



000
FTUS41 KRNK 161746
TAFBLF
TAF
KBLF 161746Z 1618/1718 30005KT 5SM BR OVC004
     FM162100 30007KT 4SM BR SCT004 OVC008
     FM170200 32002KT 4SM BR BKN005
     FM171000 09002KT 2SM -DZ BR OVC004
     FM171600 14003KT P6SM SCT008 BKN012=



000
FTUS41 KRNK 161746
TAFLWB
TAF
KLWB 161746Z 1618/1718 27003KT P6SM SCT020 BKN030 OVC050
     FM162100 31006KT P6SM SCT028 BKN035
     FM170000 00000KT P6SM SCT035 SCT100
     FM170500 00000KT 4SM BR SCT001 BKN015
     FM171000 00000KT 3SM -DZ BR OVC005
     FM171700 07001KT 5SM -DZ BR SCT005 BKN008=



000
FTUS41 KRNK 161746
TAFROA
TAF
KROA 161746Z 1618/1718 01006KT P6SM BKN035 OVC045
     FM170600 04003KT P6SM BKN012
     FM171000 06002KT 4SM -DZ BR OVC006
     FM171400 07003KT P6SM SCT008 BKN012=



000
FTUS41 KRNK 161510 AAA
TAFLWB
TAF AMD
KLWB 161510Z 1615/1712 00000KT P6SM SCT017 OVC027
     FM162000 31006KT P6SM BKN045
     FM170000 00000KT P6SM SCT035 SCT100
     FM170700 00000KT 2SM BR SCT001 BKN015=



000
FTUS41 KRNK 161510 AAA
TAFLWB
TAF AMD
KLWB 161510Z 1615/1712 00000KT P6SM SCT017 OVC027
     FM162000 31006KT P6SM BKN045
     FM170000 00000KT P6SM SCT035 SCT100
     FM170700 00000KT 2SM BR SCT001 BKN015=



000
FTUS41 KRNK 161408 AAA
TAFBLF
TAF AMD
KBLF 161408Z 1614/1712 28006KT 6SM BR OVC005
     FM161700 31006KT P6SM BKN015
     FM162000 30007KT P6SM BKN035
     FM170100 32003KT P6SM SCT035 BKN050
     FM170900 09004KT 2SM BR BKN025=



000
FTUS41 KRNK 161408 AAA
TAFBLF
TAF AMD
KBLF 161408Z 1614/1712 28006KT 6SM BR OVC005
     FM161700 31006KT P6SM BKN015
     FM162000 30007KT P6SM BKN035
     FM170100 32003KT P6SM SCT035 BKN050
     FM170900 09004KT 2SM BR BKN025=



000
FTUS41 KRNK 161130
TAFBLF
TAF
KBLF 161130Z 1612/1712 26004KT P6SM BKN003 BKN020
      TEMPO 1612/1614 SCT005 BKN050
     FM161400 28005KT P6SM SCT015 BKN028
     FM162000 30007KT P6SM BKN035
     FM170100 32003KT P6SM SCT035 BKN050
     FM170900 09004KT 2SM BR BKN025=



000
FTUS41 KRNK 161130
TAFLYH
TAF
KLYH 161130Z 1612/1712 00000KT P6SM FEW001 BKN120
     FM161400 24003KT P6SM SCT035 BKN150
     FM162100 32004KT P6SM BKN050
     FM170100 00000KT P6SM SCT050 BKN100
     FM170800 03005KT 4SM BR SCT025 BKN040=



000
FTUS41 KRNK 161130
TAFLWB
TAF
KLWB 161130Z 1612/1712 00000KT P6SM SCT015 BKN025
     FM161400 29003KT P6SM OVC035
     FM162100 31006KT P6SM BKN045
     FM170000 00000KT P6SM SCT035 SCT100
     FM170700 00000KT 2SM BR SCT001 BKN015=



000
FTUS41 KRNK 161130
TAFDAN
TAF
KDAN 161130Z 1612/1712 00000KT 2SM BR SCT004
      TEMPO 1612/1613 5SM BR BKN004
     FM161300 31004KT P6SM SCT007 SCT080
     FM162100 00000KT P6SM BKN050
     FM170100 35003KT P6SM BKN100
     FM170800 04005KT P6SM SCT035 BKN060=



000
FTUS41 KRNK 161130
TAFROA
TAF
KROA 161130Z 1612/1712 29010KT P6SM SCT030 SCT120
     FM161400 30007KT P6SM SCT035 SCT100
     FM161800 31006KT P6SM BKN045
     FM170100 32004KT P6SM SCT035 BKN100
     FM170600 05003KT P6SM SCT010 BKN030=



000
FTUS41 KRNK 161130
TAFLWB
TAF
KLWB 161130Z 1612/1712 00000KT P6SM SCT015 BKN025
     FM161400 29003KT P6SM OVC035
     FM162100 31006KT P6SM BKN045
     FM170000 00000KT P6SM SCT035 SCT100
     FM170700 00000KT 2SM BR SCT001 BKN015=



000
FTUS41 KRNK 161130
TAFROA
TAF
KROA 161130Z 1612/1712 29010KT P6SM SCT030 SCT120
     FM161400 30007KT P6SM SCT035 SCT100
     FM161800 31006KT P6SM BKN045
     FM170100 32004KT P6SM SCT035 BKN100
     FM170600 05003KT P6SM SCT010 BKN030=



000
FTUS41 KRNK 161130
TAFBLF
TAF
KBLF 161130Z 1612/1712 26004KT P6SM BKN003 BKN020
      TEMPO 1612/1614 SCT005 BKN050
     FM161400 28005KT P6SM SCT015 BKN028
     FM162000 30007KT P6SM BKN035
     FM170100 32003KT P6SM SCT035 BKN050
     FM170900 09004KT 2SM BR BKN025=



000
FTUS41 KRNK 161130
TAFLYH
TAF
KLYH 161130Z 1612/1712 00000KT P6SM FEW001 BKN120
     FM161400 24003KT P6SM SCT035 BKN150
     FM162100 32004KT P6SM BKN050
     FM170100 00000KT P6SM SCT050 BKN100
     FM170800 03005KT 4SM BR SCT025 BKN040=



000
FTUS41 KRNK 161130
TAFDAN
TAF
KDAN 161130Z 1612/1712 00000KT 2SM BR SCT004
      TEMPO 1612/1613 5SM BR BKN004
     FM161300 31004KT P6SM SCT007 SCT080
     FM162100 00000KT P6SM BKN050
     FM170100 35003KT P6SM BKN100
     FM170800 04005KT P6SM SCT035 BKN060=



000
FTUS41 KRNK 161001 AAA
TAFLYH
TAF AMD
KLYH 161001Z 1610/1706 00000KT 1SM BR VV001
      TEMPO 1610/1611 4SM BR SCT001 BKN050
     FM161400 24003KT P6SM SCT035 BKN150
     FM162100 32004KT P6SM BKN050
     FM170100 00000KT P6SM BKN100=



000
FTUS41 KRNK 161001 AAA
TAFLYH
TAF AMD
KLYH 161001Z 1610/1706 00000KT 1SM BR VV001
      TEMPO 1610/1611 4SM BR SCT001 BKN050
     FM161400 24003KT P6SM SCT035 BKN150
     FM162100 32004KT P6SM BKN050
     FM170100 00000KT P6SM BKN100=



000
FTUS41 KRNK 161000 AAA
TAFLWB
TAF AMD
KLWB 161000Z 1610/1706 28006KT P6SM SCT015 OVC025
      TEMPO 1610/1612 4SM BR
     FM161400 29003KT P6SM OVC035
     FM162100 31006KT P6SM BKN045
     FM170000 00000KT P6SM SCT035 SCT100=



000
FTUS41 KRNK 161000 AAA
TAFLWB
TAF AMD
KLWB 161000Z 1610/1706 28006KT P6SM SCT015 OVC025
      TEMPO 1610/1612 4SM BR
     FM161400 29003KT P6SM OVC035
     FM162100 31006KT P6SM BKN045
     FM170000 00000KT P6SM SCT035 SCT100=



000
FTUS41 KRNK 160901 AAA
TAFBLF
TAF AMD
KBLF 160901Z 1609/1706 27006KT P6SM -RA BKN003 OVC007
      TEMPO 1609/1610 4SM BR SCT003 OVC015
     FM161100 29006KT 5SM BR BKN007 BKN045
     FM161400 28005KT P6SM OVC025
     FM162000 30007KT P6SM BKN035
     FM170100 32003KT P6SM SCT035 BKN050=



000
FTUS41 KRNK 160901 AAA
TAFBLF
TAF AMD
KBLF 160901Z 1609/1706 27006KT P6SM -RA BKN003 OVC007
      TEMPO 1609/1610 4SM BR SCT003 OVC015
     FM161100 29006KT 5SM BR BKN007 BKN045
     FM161400 28005KT P6SM OVC025
     FM162000 30007KT P6SM BKN035
     FM170100 32003KT P6SM SCT035 BKN050=



000
FTUS41 KRNK 160528
TAFDAN
TAF
KDAN 160528Z 1606/1706 22003KT P6SM SCT025 BKN120
     FM160900 26005KT 5SM BR SCT007
     FM161300 31004KT P6SM SCT080
     FM162100 00000KT P6SM BKN050
     FM170100 35003KT P6SM BKN100=



000
FTUS41 KRNK 160528
TAFLWB
TAF
KLWB 160528Z 1606/1706 26003KT P6SM SCT040 BKN100
     FM160900 29005KT 4SM BR SCT004 BKN050
      TEMPO 1610/1612 1SM BR
     FM161400 29003KT P6SM OVC035
     FM162100 31006KT P6SM BKN045
     FM170000 00000KT P6SM SCT035 SCT100=



000
FTUS41 KRNK 160528
TAFROA
TAF
KROA 160528Z 1606/1706 13003KT P6SM BKN100
     FM160900 29003KT P6SM SCT070 BKN150
     FM161300 30004KT P6SM SCT035
     FM161800 31006KT P6SM BKN045
     FM170100 32004KT P6SM SCT035 BKN100=



000
FTUS41 KRNK 160528
TAFLYH
TAF
KLYH 160528Z 1606/1706 25004KT P6SM SCT015 SCT100
      TEMPO 1607/1611 4SM BR
     FM161300 24003KT P6SM SCT035 BKN150
     FM162100 32004KT P6SM BKN050
     FM170100 00000KT P6SM BKN100=



000
FTUS41 KRNK 160528
TAFROA
TAF
KROA 160528Z 1606/1706 13003KT P6SM BKN100
     FM160900 29003KT P6SM SCT070 BKN150
     FM161300 30004KT P6SM SCT035
     FM161800 31006KT P6SM BKN045
     FM170100 32004KT P6SM SCT035 BKN100=



000
FTUS41 KRNK 160528
TAFBLF
TAF
KBLF 160528Z 1606/1706 25010KT P6SM SCT005 BKN080
      TEMPO 1608/1610 3SM BR BKN006
     FM161000 29006KT 5SM BR BKN007 BKN045
     FM161300 28005KT P6SM OVC025
     FM162000 30007KT P6SM BKN035
     FM170100 32003KT P6SM SCT035 BKN050=



000
FTUS41 KRNK 160528
TAFBLF
TAF
KBLF 160528Z 1606/1706 25010KT P6SM SCT005 BKN080
      TEMPO 1608/1610 3SM BR BKN006
     FM161000 29006KT 5SM BR BKN007 BKN045
     FM161300 28005KT P6SM OVC025
     FM162000 30007KT P6SM BKN035
     FM170100 32003KT P6SM SCT035 BKN050=



000
FTUS41 KRNK 160528
TAFDAN
TAF
KDAN 160528Z 1606/1706 22003KT P6SM SCT025 BKN120
     FM160900 26005KT 5SM BR SCT007
     FM161300 31004KT P6SM SCT080
     FM162100 00000KT P6SM BKN050
     FM170100 35003KT P6SM BKN100=



000
FTUS41 KRNK 160528
TAFLYH
TAF
KLYH 160528Z 1606/1706 25004KT P6SM SCT015 SCT100
      TEMPO 1607/1611 4SM BR
     FM161300 24003KT P6SM SCT035 BKN150
     FM162100 32004KT P6SM BKN050
     FM170100 00000KT P6SM BKN100=



000
FTUS41 KRNK 160528
TAFLWB
TAF
KLWB 160528Z 1606/1706 26003KT P6SM SCT040 BKN100
     FM160900 29005KT 4SM BR SCT004 BKN050
      TEMPO 1610/1612 1SM BR
     FM161400 29003KT P6SM OVC035
     FM162100 31006KT P6SM BKN045
     FM170000 00000KT P6SM SCT035 SCT100=



000
FTUS41 KRNK 152335
TAFROA
TAF
KROA 152335Z 1600/1624 15007KT P6SM OVC025
     FM160400 27005KT P6SM SCT025 BKN200
     FM160900 29003KT 5SM BR SCT070 BKN200
     FM161300 30004KT P6SM SCT035
     FM161800 31006KT P6SM BKN045=



000
FTUS41 KRNK 152335
TAFLWB
TAF
KLWB 152335Z 1600/1624 00000KT P6SM SCT030 BKN200
     FM160800 29005KT 4SM BR SCT004 BKN050
      TEMPO 1610/1612 1SM BR
     FM161400 29003KT P6SM OVC025
     FM162100 31006KT P6SM BKN035=



000
FTUS41 KRNK 152335
TAFBLF
TAF
KBLF 152335Z 1600/1624 27003KT P6SM SCT013 BKN021
     FM160230 25005KT P6SM SCT020 BKN200
     FM160800 29006KT 5SM BR BKN045
     FM161300 28005KT P6SM OVC025
     FM162000 30007KT P6SM BKN035=



000
FTUS41 KRNK 152335
TAFDAN
TAF
KDAN 152335Z 1600/1624 18005KT P6SM BKN035
     FM160700 23005KT P6SM SCT035
     FM160900 26005KT 5SM BR SCT007
     FM161300 31004KT P6SM SCT080
     FM162100 00000KT P6SM BKN050=



000
FTUS41 KRNK 152335
TAFLYH
TAF
KLYH 152335Z 1600/1624 18005KT P6SM BKN030 OVC200
     FM160600 23004KT 5SM BR SCT030
     FM161300 28003KT P6SM SCT050
     FM162100 32004KT P6SM BKN050=



000
FTUS41 KRNK 152335
TAFDAN
TAF
KDAN 152335Z 1600/1624 18005KT P6SM BKN035
     FM160700 23005KT P6SM SCT035
     FM160900 26005KT 5SM BR SCT007
     FM161300 31004KT P6SM SCT080
     FM162100 00000KT P6SM BKN050=



000
FTUS41 KRNK 152335
TAFBLF
TAF
KBLF 152335Z 1600/1624 27003KT P6SM SCT013 BKN021
     FM160230 25005KT P6SM SCT020 BKN200
     FM160800 29006KT 5SM BR BKN045
     FM161300 28005KT P6SM OVC025
     FM162000 30007KT P6SM BKN035=



000
FTUS41 KRNK 152335
TAFROA
TAF
KROA 152335Z 1600/1624 15007KT P6SM OVC025
     FM160400 27005KT P6SM SCT025 BKN200
     FM160900 29003KT 5SM BR SCT070 BKN200
     FM161300 30004KT P6SM SCT035
     FM161800 31006KT P6SM BKN045=



000
FTUS41 KRNK 152335
TAFLWB
TAF
KLWB 152335Z 1600/1624 00000KT P6SM SCT030 BKN200
     FM160800 29005KT 4SM BR SCT004 BKN050
      TEMPO 1610/1612 1SM BR
     FM161400 29003KT P6SM OVC025
     FM162100 31006KT P6SM BKN035=



000
FTUS41 KRNK 152335
TAFLYH
TAF
KLYH 152335Z 1600/1624 18005KT P6SM BKN030 OVC200
     FM160600 23004KT 5SM BR SCT030
     FM161300 28003KT P6SM SCT050
     FM162100 32004KT P6SM BKN050=



000
FTUS41 KRNK 151737
TAFBLF
TAF
KBLF 151737Z 1518/1618 26008KT P6SM BKN045
     FM160000 27004KT P6SM SCT040 BKN100
     FM160800 28005KT 4SM BR BKN035 BKN060
     FM161200 27005KT 6SM BR OVC015
     FM161500 30006KT P6SM BKN030=



000
FTUS41 KRNK 151737
TAFDAN
TAF
KDAN 151737Z 1518/1618 VRB02KT P6SM SCT035
     FM160100 20003KT P6SM BKN030 BKN100
     FM160900 25003KT 3SM BR BKN035 BKN120
     FM161300 31003KT P6SM SCT250=



000
FTUS41 KRNK 151737
TAFROA
TAF
KROA 151737Z 1518/1618 00000KT P6SM SCT025 OVC050
     FM160100 19003KT P6SM SCT030 BKN050
     FM160600 28006KT P6SM SCT035 BKN120
     FM160900 29003KT 5SM BR BKN090
     FM161300 28003KT P6SM BKN035=



000
FTUS41 KRNK 151737
TAFLYH
TAF
KLYH 151737Z 1518/1618 18004KT P6SM SCT035
     FM160100 16003KT P6SM SCT020 BKN035
     FM160600 21003KT 4SM BR OVC050
     FM161300 26002KT P6SM SCT250=



000
FTUS41 KRNK 151737
TAFLWB
TAF
KLWB 151737Z 1518/1618 00000KT P6SM SCT014 OVC040
     FM160000 VRB03KT P6SM SCT040 BKN100
     FM160800 29003KT 2SM BR SCT001 BKN050
     FM160900 VRB02KT 3/4SM BR OVC002
     FM161400 29003KT P6SM OVC025=



000
FTUS41 KRNK 151737
TAFBLF
TAF
KBLF 151737Z 1518/1618 26008KT P6SM BKN045
     FM160000 27004KT P6SM SCT040 BKN100
     FM160800 28005KT 4SM BR BKN035 BKN060
     FM161200 27005KT 6SM BR OVC015
     FM161500 30006KT P6SM BKN030=



000
FTUS41 KRNK 151737
TAFLWB
TAF
KLWB 151737Z 1518/1618 00000KT P6SM SCT014 OVC040
     FM160000 VRB03KT P6SM SCT040 BKN100
     FM160800 29003KT 2SM BR SCT001 BKN050
     FM160900 VRB02KT 3/4SM BR OVC002
     FM161400 29003KT P6SM OVC025=



000
FTUS41 KRNK 151737
TAFLYH
TAF
KLYH 151737Z 1518/1618 18004KT P6SM SCT035
     FM160100 16003KT P6SM SCT020 BKN035
     FM160600 21003KT 4SM BR OVC050
     FM161300 26002KT P6SM SCT250=



000
FTUS41 KRNK 151737
TAFDAN
TAF
KDAN 151737Z 1518/1618 VRB02KT P6SM SCT035
     FM160100 20003KT P6SM BKN030 BKN100
     FM160900 25003KT 3SM BR BKN035 BKN120
     FM161300 31003KT P6SM SCT250=



000
FTUS41 KRNK 151737
TAFROA
TAF
KROA 151737Z 1518/1618 00000KT P6SM SCT025 OVC050
     FM160100 19003KT P6SM SCT030 BKN050
     FM160600 28006KT P6SM SCT035 BKN120
     FM160900 29003KT 5SM BR BKN090
     FM161300 28003KT P6SM BKN035=



000
FTUS41 KRNK 151132 CCA
TAFLYH
TAF COR
KLYH 151132Z 1512/1612 00000KT P6SM SCT025
     FM151300 20003KT P6SM SCT015 BKN030
     FM151800 17005KT P6SM BKN040
     FM160100 16003KT P6SM SCT020 BKN035
     FM160800 30003KT 4SM BR SCT040 BKN150=



000
FTUS41 KRNK 151132 CCA
TAFLYH
TAF COR
KLYH 151132Z 1512/1612 00000KT P6SM SCT025
     FM151300 20003KT P6SM SCT015 BKN030
     FM151800 17005KT P6SM BKN040
     FM160100 16003KT P6SM SCT020 BKN035
     FM160800 30003KT 4SM BR SCT040 BKN150=



000
FTUS41 KRNK 151122
TAFDAN
TAF
KDAN 151122Z 1512/1612 00000KT P6SM SCT030 BKN060
     FM151500 24005KT P6SM SCT025 BKN040
     FM160100 20003KT P6SM BKN030 BKN100
     FM160800 25003KT P6SM BKN035 BKN120=



000
FTUS41 KRNK 151122
TAFLWB
TAF
KLWB 151122Z 1512/1612 00000KT 1/4SM FG OVC001
     FM151330 26003KT 6SM BR SCT003 OVC015
     FM151500 27003KT P6SM BKN025
     FM151800 28006KT P6SM BKN045
     FM160000 VRB03KT P6SM SCT040 BKN100
     FM160800 29003KT 2SM BR SCT001 BKN050=



000
FTUS41 KRNK 151122
TAFBLF
TAF
KBLF 151122Z 1512/1612 00000KT 1/2SM FG VV002
     FM151400 23005KT P6SM BKN015
     FM151800 27008KT P6SM BKN045
     FM160000 27004KT P6SM SCT040 BKN100
     FM160800 28005KT P6SM BKN035 BKN060=



000
FTUS41 KRNK 151122
TAFLYH
TAF
KLYH 151122Z 1512/1612 00000KT P6SM BKN025
     FM151500 20003KT P6SM SCT015 BKN030
     FM151800 17005KT P6SM BKN040
     FM160100 16003KT P6SM SCT020 BKN035
     FM160800 30003KT 4SM BR SCT040 BKN150=



000
FTUS41 KRNK 151122
TAFROA
TAF
KROA 151122Z 1512/1612 00000KT P6SM SCT010 OVC015
     FM151500 27006KT P6SM BKN025
     FM151800 18005KT P6SM BKN045
     FM160100 19003KT P6SM SCT030 BKN050
     FM160600 28006KT P6SM SCT035 BKN120=



000
FTUS41 KRNK 151122
TAFLYH
TAF
KLYH 151122Z 1512/1612 00000KT P6SM BKN025
     FM151500 20003KT P6SM SCT015 BKN030
     FM151800 17005KT P6SM BKN040
     FM160100 16003KT P6SM SCT020 BKN035
     FM160800 30003KT 4SM BR SCT040 BKN150=



000
FTUS41 KRNK 151122
TAFDAN
TAF
KDAN 151122Z 1512/1612 00000KT P6SM SCT030 BKN060
     FM151500 24005KT P6SM SCT025 BKN040
     FM160100 20003KT P6SM BKN030 BKN100
     FM160800 25003KT P6SM BKN035 BKN120=



000
FTUS41 KRNK 151122
TAFLWB
TAF
KLWB 151122Z 1512/1612 00000KT 1/4SM FG OVC001
     FM151330 26003KT 6SM BR SCT003 OVC015
     FM151500 27003KT P6SM BKN025
     FM151800 28006KT P6SM BKN045
     FM160000 VRB03KT P6SM SCT040 BKN100
     FM160800 29003KT 2SM BR SCT001 BKN050=



000
FTUS41 KRNK 151122
TAFROA
TAF
KROA 151122Z 1512/1612 00000KT P6SM SCT010 OVC015
     FM151500 27006KT P6SM BKN025
     FM151800 18005KT P6SM BKN045
     FM160100 19003KT P6SM SCT030 BKN050
     FM160600 28006KT P6SM SCT035 BKN120=



000
FTUS41 KRNK 151122
TAFBLF
TAF
KBLF 151122Z 1512/1612 00000KT 1/2SM FG VV002
     FM151400 23005KT P6SM BKN015
     FM151800 27008KT P6SM BKN045
     FM160000 27004KT P6SM SCT040 BKN100
     FM160800 28005KT P6SM BKN035 BKN060=



000
FTUS41 KRNK 150629 AAA
TAFBLF
TAF AMD
KBLF 150629Z 1506/1606 00000KT 1/4SM FG BKN007
      TEMPO 1508/1511 2SM BR OVC001
     FM151400 23005KT P6SM BKN015
     FM151800 27008KT P6SM BKN040
     FM160000 27004KT P6SM SCT040 BKN100=



000
FTUS41 KRNK 150629 AAA
TAFBLF
TAF AMD
KBLF 150629Z 1506/1606 00000KT 1/4SM FG BKN007
      TEMPO 1508/1511 2SM BR OVC001
     FM151400 23005KT P6SM BKN015
     FM151800 27008KT P6SM BKN040
     FM160000 27004KT P6SM SCT040 BKN100=



000
FTUS41 KRNK 150527
TAFDAN
TAF
KDAN 150527Z 1506/1606 00000KT P6SM OVC030
      TEMPO 1506/1509 BKN020 OVC025
     FM151500 24005KT P6SM BKN040
     FM160100 20003KT P6SM SCT035 BKN100=



000
FTUS41 KRNK 150527
TAFBLF
TAF
KBLF 150527Z 1506/1606 24004KT P6SM SCT007 BKN020
      TEMPO 1508/1511 1SM BR OVC007
     FM151400 23005KT P6SM BKN015
     FM151800 27008KT P6SM BKN040
     FM160000 27004KT P6SM SCT040 BKN100=



000
FTUS41 KRNK 150527
TAFLYH
TAF
KLYH 150527Z 1506/1606 22003KT P6SM BKN025
      TEMPO 1507/1511 4SM BR BKN015
     FM151500 20003KT P6SM SCT015 BKN030
     FM151800 17005KT P6SM BKN050
     FM160100 16003KT P6SM SCT020 BKN035=



000
FTUS41 KRNK 150527
TAFLWB
TAF
KLWB 150527Z 1506/1606 00000KT 1/4SM FG VV001
      TEMPO 1507/1511 3SM BR SCT001 BKN007
     FM151300 26003KT 6SM BR SCT003 OVC015
     FM151500 27003KT P6SM BKN025
     FM151800 28006KT P6SM BKN045
     FM160000 VRB03KT P6SM SCT040 BKN100=



000
FTUS41 KRNK 150527
TAFROA
TAF
KROA 150527Z 1506/1606 13006KT P6SM OVC025
     FM151000 VRB03KT P6SM OVC015
     FM151400 27006KT P6SM BKN035
     FM151800 18005KT P6SM BKN045
     FM160100 19003KT P6SM BKN030=



000
FTUS41 KRNK 150527
TAFLYH
TAF
KLYH 150527Z 1506/1606 22003KT P6SM BKN025
      TEMPO 1507/1511 4SM BR BKN015
     FM151500 20003KT P6SM SCT015 BKN030
     FM151800 17005KT P6SM BKN050
     FM160100 16003KT P6SM SCT020 BKN035=



000
FTUS41 KRNK 150527
TAFROA
TAF
KROA 150527Z 1506/1606 13006KT P6SM OVC025
     FM151000 VRB03KT P6SM OVC015
     FM151400 27006KT P6SM BKN035
     FM151800 18005KT P6SM BKN045
     FM160100 19003KT P6SM BKN030=



000
FTUS41 KRNK 150527
TAFDAN
TAF
KDAN 150527Z 1506/1606 00000KT P6SM OVC030
      TEMPO 1506/1509 BKN020 OVC025
     FM151500 24005KT P6SM BKN040
     FM160100 20003KT P6SM SCT035 BKN100=



000
FTUS41 KRNK 150527
TAFBLF
TAF
KBLF 150527Z 1506/1606 24004KT P6SM SCT007 BKN020
      TEMPO 1508/1511 1SM BR OVC007
     FM151400 23005KT P6SM BKN015
     FM151800 27008KT P6SM BKN040
     FM160000 27004KT P6SM SCT040 BKN100=



000
FTUS41 KRNK 150527
TAFLWB
TAF
KLWB 150527Z 1506/1606 00000KT 1/4SM FG VV001
      TEMPO 1507/1511 3SM BR SCT001 BKN007
     FM151300 26003KT 6SM BR SCT003 OVC015
     FM151500 27003KT P6SM BKN025
     FM151800 28006KT P6SM BKN045
     FM160000 VRB03KT P6SM SCT040 BKN100=



    US Dept of Commerce
    National Oceanic and Atmospheric Administration
    National Weather Service
    1325 East West Highway
    Silver Spring, MD 20910
    Page Author: NWS Internet Services Team
Disclaimer
Information Quality
Credits
Glossary
Privacy Policy
Freedom of Information Act (FOIA)
About Us
Career Opportunities